Meeham, Mississippi
Current Conditions -  °F | °C
As of 9:58 PM on Sunday 23 Nov 2014 (Local Time) from KMEI Reporting Station
Clear Clear  
Wind Chill: 61°   Ceiling: Unl
Heat Index: 61°   Visibility: 10mi
Dew Point: 58°   Wind: 16mph
Humidity: 90%   Direction: 190°S
Pressure: 29.65"   Gusts: NA
Location:  32.3221°N, 88.5771°W
Report Text: KMEI 240358Z AUTO 19014KT 10SM CLR 16/14 A2965 RMK AO2 SLP037 T01610144
Loading
Personal Weather Stations






























Interactive Weather Map New forecast layout! Learn more

10-Day Weather Forecast

Advertisements
Track Severe Weather on mobile